Aviation Digital Data Service (ADDS)

Output produced by METARs form (0320 UTC 18 June 2019)
found at http://www.aviationweather.gov/metar/data/
 
METAR text: LYBT 180300Z VRB02KT 4000 BR NSC 18/18 Q1015 NOSIG
Conditions at: LYBT (BATAJNICA , CS) observed 0300 UTC 18 June 2019
Temperature: 18.0°C (64°F)
Dewpoint: 18.0°C (64°F) [RH = 100%]
Pressure (altimeter): 29.97 inches Hg (1015.0 mb)
Winds: variable direction winds at 2 MPH (2 knots; 1.0 m/s)
Visibility: 2.49 miles (4.01 km)
Ceiling: at least 12,000 feet AGL
Clouds: sky clear below 12,000 feet AGL
Weather: BR  (mist)

METAR text: LYBT 180230Z 00000KT 5000 BR NSC 18/18 Q1015 NOSIG
Conditions at: LYBT (BATAJNICA , CS) observed 0230 UTC 18 June 2019
Temperature: 18.0°C (64°F)
Dewpoint: 18.0°C (64°F) [RH = 100%]
Pressure (altimeter): 29.97 inches Hg (1015.0 mb)
Winds: calm
Visibility: 3 miles ( 5 km)
Ceiling: at least 12,000 feet AGL
Clouds: sky clear below 12,000 feet AGL
Weather: BR  (mist)

METAR text: LYBT 180200Z 16002KT 5000 BR NSC 18/18 Q1015 NOSIG
Conditions at: LYBT (BATAJNICA , CS) observed 0200 UTC 18 June 2019
Temperature: 18.0°C (64°F)
Dewpoint: 18.0°C (64°F) [RH = 100%]
Pressure (altimeter): 29.97 inches Hg (1015.0 mb)
Winds: from the SSE (160 degrees) at 2 MPH (2 knots; 1.0 m/s)
Visibility: 3 miles ( 5 km)
Ceiling: at least 12,000 feet AGL
Clouds: sky clear below 12,000 feet AGL
Weather: BR  (mist)

METAR text: LYBT 180130Z 14002KT 5000 BR NSC 18/18 Q1015 NOSIG
Conditions at: LYBT (BATAJNICA , CS) observed 0130 UTC 18 June 2019
Temperature: 18.0°C (64°F)
Dewpoint: 18.0°C (64°F) [RH = 100%]
Pressure (altimeter): 29.97 inches Hg (1015.0 mb)
Winds: from the SE (140 degrees) at 2 MPH (2 knots; 1.0 m/s)
Visibility: 3 miles ( 5 km)
Ceiling: at least 12,000 feet AGL
Clouds: sky clear below 12,000 feet AGL
Weather: BR  (mist)

METAR text: LYBT 180100Z 00000KT CAVOK 18/18 Q1015 NOSIG
Conditions at: LYBT (BATAJNICA , CS) observed 0100 UTC 18 June 2019
Temperature: 18.0°C (64°F)
Dewpoint: 18.0°C (64°F) [RH = 100%]
Pressure (altimeter): 29.97 inches Hg (1015.0 mb)
Winds: calm
Visibility: 6 or more miles (10+ km)
Ceiling: ceiling and visibility are OK
Clouds: unknown
Weather: no significant weather observed at this time

METAR text: LYBT 180030Z 12001KT CAVOK 18/18 Q1015 NOSIG
Conditions at: LYBT (BATAJNICA , CS) observed 0030 UTC 18 June 2019
Temperature: 18.0°C (64°F)
Dewpoint: 18.0°C (64°F) [RH = 100%]
Pressure (altimeter): 29.97 inches Hg (1015.0 mb)
Winds: from the ESE (120 degrees) at 1 MPH (1 knots; 0.5 m/s)
Visibility: 6 or more miles (10+ km)
Ceiling: ceiling and visibility are OK
Clouds: unknown
Weather: no significant weather observed at this time

METAR text: LYBT 180000Z 33001KT CAVOK 18/18 Q1015 NOSIG
Conditions at: LYBT (BATAJNICA , CS) observed 0000 UTC 18 June 2019
Temperature: 18.0°C (64°F)
Dewpoint: 18.0°C (64°F) [RH = 100%]
Pressure (altimeter): 29.97 inches Hg (1015.0 mb)
Winds: from the NNW (330 degrees) at 1 MPH (1 knots; 0.5 m/s)
Visibility: 6 or more miles (10+ km)
Ceiling: ceiling and visibility are OK
Clouds: unknown
Weather: no significant weather observed at this time

METAR text: LYBT 172330Z VRB01KT CAVOK 19/19 Q1015 NOSIG
Conditions at: LYBT (BATAJNICA , CS) observed 2330 UTC 17 June 2019
Temperature: 19.0°C (66°F)
Dewpoint: 19.0°C (66°F) [RH = 100%]
Pressure (altimeter): 29.97 inches Hg (1015.0 mb)
Winds: variable direction winds at 1 MPH (1 knots; 0.5 m/s)
Visibility: 6 or more miles (10+ km)
Ceiling: ceiling and visibility are OK
Clouds: unknown
Weather: no significant weather observed at this time

METAR text: LYBT 172300Z VRB01KT CAVOK 19/19 Q1016 NOSIG
Conditions at: LYBT (BATAJNICA , CS) observed 2300 UTC 17 June 2019
Temperature: 19.0°C (66°F)
Dewpoint: 19.0°C (66°F) [RH = 100%]
Pressure (altimeter): 30.00 inches Hg (1016.0 mb)
Winds: variable direction winds at 1 MPH (1 knots; 0.5 m/s)
Visibility: 6 or more miles (10+ km)
Ceiling: ceiling and visibility are OK
Clouds: unknown
Weather: no significant weather observed at this time

METAR text: LYBT 172230Z VRB02KT CAVOK 19/19 Q1016 NOSIG
Conditions at: LYBT (BATAJNICA , CS) observed 2230 UTC 17 June 2019
Temperature: 19.0°C (66°F)
Dewpoint: 19.0°C (66°F) [RH = 100%]
Pressure (altimeter): 30.00 inches Hg (1016.0 mb)
Winds: variable direction winds at 2 MPH (2 knots; 1.0 m/s)
Visibility: 6 or more miles (10+ km)
Ceiling: ceiling and visibility are OK
Clouds: unknown
Weather: no significant weather observed at this time

METAR text: LYBT 172200Z 23001KT CAVOK 19/19 Q1016 NOSIG
Conditions at: LYBT (BATAJNICA , CS) observed 2200 UTC 17 June 2019
Temperature: 19.0°C (66°F)
Dewpoint: 19.0°C (66°F) [RH = 100%]
Pressure (altimeter): 30.00 inches Hg (1016.0 mb)
Winds: from the SW (230 degrees) at 1 MPH (1 knots; 0.5 m/s)
Visibility: 6 or more miles (10+ km)
Ceiling: ceiling and visibility are OK
Clouds: unknown
Weather: no significant weather observed at this time

METAR text: LYBT 172130Z 00000KT CAVOK 19/19 Q1016 NOSIG
Conditions at: LYBT (BATAJNICA , CS) observed 2130 UTC 17 June 2019
Temperature: 19.0°C (66°F)
Dewpoint: 19.0°C (66°F) [RH = 100%]
Pressure (altimeter): 30.00 inches Hg (1016.0 mb)
Winds: calm
Visibility: 6 or more miles (10+ km)
Ceiling: ceiling and visibility are OK
Clouds: unknown
Weather: no significant weather observed at this time

METAR text: LYBT 172100Z 27005KT CAVOK 19/19 Q1016 NOSIG
Conditions at: LYBT (BATAJNICA , CS) observed 2100 UTC 17 June 2019
Temperature: 19.0°C (66°F)
Dewpoint: 19.0°C (66°F) [RH = 100%]
Pressure (altimeter): 30.00 inches Hg (1016.0 mb)
Winds: from the W (270 degrees) at 6 MPH (5 knots; 2.6 m/s)
Visibility: 6 or more miles (10+ km)
Ceiling: ceiling and visibility are OK
Clouds: unknown
Weather: no significant weather observed at this time

METAR text: LYBT 172030Z 28005KT CAVOK 19/19 Q1016 NOSIG
Conditions at: LYBT (BATAJNICA , CS) observed 2030 UTC 17 June 2019
Temperature: 19.0°C (66°F)
Dewpoint: 19.0°C (66°F) [RH = 100%]
Pressure (altimeter): 30.00 inches Hg (1016.0 mb)
Winds: from the W (280 degrees) at 6 MPH (5 knots; 2.6 m/s)
Visibility: 6 or more miles (10+ km)
Ceiling: ceiling and visibility are OK
Clouds: unknown
Weather: no significant weather observed at this time

METAR text: LYBT 172000Z 11003KT 070V150 9999 -RA SCT040 20/19 Q1015 RESHRA NOSIG
Conditions at: LYBT (BATAJNICA , CS) observed 2000 UTC 17 June 2019
Temperature: 20.0°C (68°F)
Dewpoint: 19.0°C (66°F) [RH = 94%]
Pressure (altimeter): 29.97 inches Hg (1015.0 mb)
Winds: from the ESE (110 degrees) at 3 MPH (3 knots; 1.5 m/s)
Visibility: 6 or more miles (10+ km)
Ceiling: at least 12,000 feet AGL
Clouds: scattered clouds at 4000 feet AGL
Weather: -RA  (light rain)

METAR text: LYBT 171930Z VRB01KT 9999 -SHRA FEW040TCU 20/18 Q1015 NOSIG
Conditions at: LYBT (BATAJNICA , CS) observed 1930 UTC 17 June 2019
Temperature: 20.0°C (68°F)
Dewpoint: 18.0°C (64°F) [RH = 88%]
Pressure (altimeter): 29.97 inches Hg (1015.0 mb)
Winds: variable direction winds at 1 MPH (1 knots; 0.5 m/s)
Visibility: 6 or more miles (10+ km)
Ceiling: at least 12,000 feet AGL
Clouds: few clouds at 4000 feet AGL
Weather: -SHRA  (light rain showers)

METAR text: LYBT 171900Z VRB01KT 9999 -RA FEW040 20/19 Q1016 RETS NOSIG
Conditions at: LYBT (BATAJNICA , CS) observed 1900 UTC 17 June 2019
Temperature: 20.0°C (68°F)
Dewpoint: 19.0°C (66°F) [RH = 94%]
Pressure (altimeter): 30.00 inches Hg (1016.0 mb)
Winds: variable direction winds at 1 MPH (1 knots; 0.5 m/s)
Visibility: 6 or more miles (10+ km)
Ceiling: at least 12,000 feet AGL
Clouds: few clouds at 4000 feet AGL
Weather: -RA  (light rain)

METAR text: LYBT 171830Z 14009KT 9999 -TSRA SCT033CB 20/18 Q1016 NOSIG
Conditions at: LYBT (BATAJNICA , CS) observed 1830 UTC 17 June 2019
Temperature: 20.0°C (68°F)
Dewpoint: 18.0°C (64°F) [RH = 88%]
Pressure (altimeter): 30.00 inches Hg (1016.0 mb)
Winds: from the SE (140 degrees) at 10 MPH (9 knots; 4.6 m/s)
Visibility: 6 or more miles (10+ km)
Ceiling: at least 12,000 feet AGL
Clouds: scattered clouds at 3300 feet AGL
Weather: -TSRA  (light rain associated with thunderstorm(s))

METAR text: LYBT 171800Z 07007KT 020V100 9999 TS FEW033CB SCT040 22/17 Q1016 TEMPO 5000 TSRA
Conditions at: LYBT (BATAJNICA , CS) observed 1800 UTC 17 June 2019
Temperature: 22.0°C (72°F)
Dewpoint: 17.0°C (63°F) [RH = 73%]
Pressure (altimeter): 30.00 inches Hg (1016.0 mb)
Winds: from the ENE (70 degrees) at 8 MPH (7 knots; 3.6 m/s)
Visibility: 6 or more miles (10+ km)
Ceiling: at least 12,000 feet AGL
Clouds: few clouds at 3300 feet AGL
scattered clouds at 4000 feet AGL
Weather: TS  (thunderstorm)

METAR text: LYBT 171730Z 05009KT 010V080 9999 TS FEW033CB SCT040 23/18 Q1016 TEMPO 5000 TSRA
Conditions at: LYBT (BATAJNICA , CS) observed 1730 UTC 17 June 2019
Temperature: 23.0°C (73°F)
Dewpoint: 18.0°C (64°F) [RH = 73%]
Pressure (altimeter): 30.00 inches Hg (1016.0 mb)
Winds: from the NE (50 degrees) at 10 MPH (9 knots; 4.6 m/s)
Visibility: 6 or more miles (10+ km)
Ceiling: at least 12,000 feet AGL
Clouds: few clouds at 3300 feet AGL
scattered clouds at 4000 feet AGL
Weather: TS  (thunderstorm)

METAR text: LYBT 171700Z 31005KT 270V340 9999 TS FEW033CB SCT040 26/20 Q1015 TEMPO 5000 TSRA
Conditions at: LYBT (BATAJNICA , CS) observed 1700 UTC 17 June 2019
Temperature: 26.0°C (79°F)
Dewpoint: 20.0°C (68°F) [RH = 70%]
Pressure (altimeter): 29.97 inches Hg (1015.0 mb)
Winds: from the NW (310 degrees) at 6 MPH (5 knots; 2.6 m/s)
Visibility: 6 or more miles (10+ km)
Ceiling: at least 12,000 feet AGL
Clouds: few clouds at 3300 feet AGL
scattered clouds at 4000 feet AGL
Weather: TS  (thunderstorm)

METAR text: LYBT 171630Z 26003KT 9999 TS FEW033CB SCT040 26/20 Q1015 TEMPO 5000 TSRA
Conditions at: LYBT (BATAJNICA , CS) observed 1630 UTC 17 June 2019
Temperature: 26.0°C (79°F)
Dewpoint: 20.0°C (68°F) [RH = 70%]
Pressure (altimeter): 29.97 inches Hg (1015.0 mb)
Winds: from the W (260 degrees) at 3 MPH (3 knots; 1.5 m/s)
Visibility: 6 or more miles (10+ km)
Ceiling: at least 12,000 feet AGL
Clouds: few clouds at 3300 feet AGL
scattered clouds at 4000 feet AGL
Weather: TS  (thunderstorm)

METAR text: LYBT 171600Z 28004KT 250V320 9999 FEW033TCU SCT040 26/20 Q1015 TEMPO 5000 TSRA SCT030CB SCT040
Conditions at: LYBT (BATAJNICA , CS) observed 1600 UTC 17 June 2019
Temperature: 26.0°C (79°F)
Dewpoint: 20.0°C (68°F) [RH = 70%]
Pressure (altimeter): 29.97 inches Hg (1015.0 mb)
Winds: from the W (280 degrees) at 5 MPH (4 knots; 2.1 m/s)
Visibility: 6 or more miles (10+ km)
Ceiling: at least 12,000 feet AGL
Clouds: few clouds at 3300 feet AGL
scattered clouds at 4000 feet AGL
Weather: no significant weather observed at this time

METAR text: LYBT 171530Z 27004KT 240V310 9999 SCT033 26/20 Q1015 NOSIG
Conditions at: LYBT (BATAJNICA , CS) observed 1530 UTC 17 June 2019
Temperature: 26.0°C (79°F)
Dewpoint: 20.0°C (68°F) [RH = 70%]
Pressure (altimeter): 29.97 inches Hg (1015.0 mb)
Winds: from the W (270 degrees) at 5 MPH (4 knots; 2.1 m/s)
Visibility: 6 or more miles (10+ km)
Ceiling: at least 12,000 feet AGL
Clouds: scattered clouds at 3300 feet AGL
Weather: no significant weather observed at this time

METAR text: LYBT 171500Z 29004KT 240V340 9999 SCT033 25/19 Q1015 NOSIG
Conditions at: LYBT (BATAJNICA , CS) observed 1500 UTC 17 June 2019
Temperature: 25.0°C (77°F)
Dewpoint: 19.0°C (66°F) [RH = 69%]
Pressure (altimeter): 29.97 inches Hg (1015.0 mb)
Winds: from the WNW (290 degrees) at 5 MPH (4 knots; 2.1 m/s)
Visibility: 6 or more miles (10+ km)
Ceiling: at least 12,000 feet AGL
Clouds: scattered clouds at 3300 feet AGL
Weather: no significant weather observed at this time

METAR text: LYBT 171430Z 27005KT 210V330 9999 SCT030 27/20 Q1015 NOSIG
Conditions at: LYBT (BATAJNICA , CS) observed 1430 UTC 17 June 2019
Temperature: 27.0°C (81°F)
Dewpoint: 20.0°C (68°F) [RH = 66%]
Pressure (altimeter): 29.97 inches Hg (1015.0 mb)
Winds: from the W (270 degrees) at 6 MPH (5 knots; 2.6 m/s)
Visibility: 6 or more miles (10+ km)
Ceiling: at least 12,000 feet AGL
Clouds: scattered clouds at 3000 feet AGL
Weather: no significant weather observed at this time

METAR text: LYBT 171400Z 29006KT 240V340 9999 SCT033 26/20 Q1015 NOSIG
Conditions at: LYBT (BATAJNICA , CS) observed 1400 UTC 17 June 2019
Temperature: 26.0°C (79°F)
Dewpoint: 20.0°C (68°F) [RH = 70%]
Pressure (altimeter): 29.97 inches Hg (1015.0 mb)
Winds: from the WNW (290 degrees) at 7 MPH (6 knots; 3.1 m/s)
Visibility: 6 or more miles (10+ km)
Ceiling: at least 12,000 feet AGL
Clouds: scattered clouds at 3300 feet AGL
Weather: no significant weather observed at this time

METAR text: LYBT 171330Z 26006KT 210V300 9999 SCT033 26/20 Q1015 NOSIG
Conditions at: LYBT (BATAJNICA , CS) observed 1330 UTC 17 June 2019
Temperature: 26.0°C (79°F)
Dewpoint: 20.0°C (68°F) [RH = 70%]
Pressure (altimeter): 29.97 inches Hg (1015.0 mb)
Winds: from the W (260 degrees) at 7 MPH (6 knots; 3.1 m/s)
Visibility: 6 or more miles (10+ km)
Ceiling: at least 12,000 feet AGL
Clouds: scattered clouds at 3300 feet AGL
Weather: no significant weather observed at this time

METAR text: LYBT 171300Z 27006KT 230V320 9999 SCT033 26/20 Q1016 NOSIG
Conditions at: LYBT (BATAJNICA , CS) observed 1300 UTC 17 June 2019
Temperature: 26.0°C (79°F)
Dewpoint: 20.0°C (68°F) [RH = 70%]
Pressure (altimeter): 30.00 inches Hg (1016.0 mb)
Winds: from the W (270 degrees) at 7 MPH (6 knots; 3.1 m/s)
Visibility: 6 or more miles (10+ km)
Ceiling: at least 12,000 feet AGL
Clouds: scattered clouds at 3300 feet AGL
Weather: no significant weather observed at this time

METAR text: LYBT 171230Z 25007KT 210V280 9999 BKN030 26/20 Q1016 NOSIG
Conditions at: LYBT (BATAJNICA , CS) observed 1230 UTC 17 June 2019
Temperature: 26.0°C (79°F)
Dewpoint: 20.0°C (68°F) [RH = 70%]
Pressure (altimeter): 30.00 inches Hg (1016.0 mb)
Winds: from the WSW (250 degrees) at 8 MPH (7 knots; 3.6 m/s)
Visibility: 6 or more miles (10+ km)
Ceiling: 3000 feet AGL
Clouds: broken clouds at 3000 feet AGL
Weather: no significant weather observed at this time

METAR text: LYBT 171200Z 26006KT 210V300 9999 BKN033 26/20 Q1016 NOSIG
Conditions at: LYBT (BATAJNICA , CS) observed 1200 UTC 17 June 2019
Temperature: 26.0°C (79°F)
Dewpoint: 20.0°C (68°F) [RH = 70%]
Pressure (altimeter): 30.00 inches Hg (1016.0 mb)
Winds: from the W (260 degrees) at 7 MPH (6 knots; 3.1 m/s)
Visibility: 6 or more miles (10+ km)
Ceiling: 3300 feet AGL
Clouds: broken clouds at 3300 feet AGL
Weather: no significant weather observed at this time

METAR text: LYBT 171130Z 24007KT 190V280 9999 BKN033 26/20 Q1016 NOSIG
Conditions at: LYBT (BATAJNICA , CS) observed 1130 UTC 17 June 2019
Temperature: 26.0°C (79°F)
Dewpoint: 20.0°C (68°F) [RH = 70%]
Pressure (altimeter): 30.00 inches Hg (1016.0 mb)
Winds: from the WSW (240 degrees) at 8 MPH (7 knots; 3.6 m/s)
Visibility: 6 or more miles (10+ km)
Ceiling: 3300 feet AGL
Clouds: broken clouds at 3300 feet AGL
Weather: no significant weather observed at this time

METAR text: LYBT 171100Z 27004KT 190V310 9999 SCT030 25/19 Q1017 NOSIG
Conditions at: LYBT (BATAJNICA , CS) observed 1100 UTC 17 June 2019
Temperature: 25.0°C (77°F)
Dewpoint: 19.0°C (66°F) [RH = 69%]
Pressure (altimeter): 30.03 inches Hg (1017.0 mb)
Winds: from the W (270 degrees) at 5 MPH (4 knots; 2.1 m/s)
Visibility: 6 or more miles (10+ km)
Ceiling: at least 12,000 feet AGL
Clouds: scattered clouds at 3000 feet AGL
Weather: no significant weather observed at this time

METAR text: LYBT 171030Z 23005KT 140V300 9999 SCT027 25/19 Q1017 NOSIG
Conditions at: LYBT (BATAJNICA , CS) observed 1030 UTC 17 June 2019
Temperature: 25.0°C (77°F)
Dewpoint: 19.0°C (66°F) [RH = 69%]
Pressure (altimeter): 30.03 inches Hg (1017.0 mb)
Winds: from the SW (230 degrees) at 6 MPH (5 knots; 2.6 m/s)
Visibility: 6 or more miles (10+ km)
Ceiling: at least 12,000 feet AGL
Clouds: scattered clouds at 2700 feet AGL
Weather: no significant weather observed at this time

METAR text: LYBT 171000Z 20006KT 150V250 9999 SCT025 25/19 Q1017 NOSIG
Conditions at: LYBT (BATAJNICA , CS) observed 1000 UTC 17 June 2019
Temperature: 25.0°C (77°F)
Dewpoint: 19.0°C (66°F) [RH = 69%]
Pressure (altimeter): 30.03 inches Hg (1017.0 mb)
Winds: from the SSW (200 degrees) at 7 MPH (6 knots; 3.1 m/s)
Visibility: 6 or more miles (10+ km)
Ceiling: at least 12,000 feet AGL
Clouds: scattered clouds at 2500 feet AGL
Weather: no significant weather observed at this time

METAR text: LYBT 170930Z 21005KT 150V260 9999 SCT023 25/20 Q1017 NOSIG
Conditions at: LYBT (BATAJNICA , CS) observed 0930 UTC 17 June 2019
Temperature: 25.0°C (77°F)
Dewpoint: 20.0°C (68°F) [RH = 74%]
Pressure (altimeter): 30.03 inches Hg (1017.0 mb)
Winds: from the SSW (210 degrees) at 6 MPH (5 knots; 2.6 m/s)
Visibility: 6 or more miles (10+ km)
Ceiling: at least 12,000 feet AGL
Clouds: scattered clouds at 2300 feet AGL
Weather: no significant weather observed at this time

METAR text: LYBT 170900Z 20006KT 130V230 9999 FEW017 SCT027 24/20 Q1017 NOSIG
Conditions at: LYBT (BATAJNICA , CS) observed 0900 UTC 17 June 2019
Temperature: 24.0°C (75°F)
Dewpoint: 20.0°C (68°F) [RH = 78%]
Pressure (altimeter): 30.03 inches Hg (1017.0 mb)
Winds: from the SSW (200 degrees) at 7 MPH (6 knots; 3.1 m/s)
Visibility: 6 or more miles (10+ km)
Ceiling: at least 12,000 feet AGL
Clouds: few clouds at 1700 feet AGL
scattered clouds at 2700 feet AGL
Weather: no significant weather observed at this time

METAR text: LYBT 170830Z 21005KT 150V250 9999 FEW017 SCT027 23/20 Q1017 NOSIG
Conditions at: LYBT (BATAJNICA , CS) observed 0830 UTC 17 June 2019
Temperature: 23.0°C (73°F)
Dewpoint: 20.0°C (68°F) [RH = 83%]
Pressure (altimeter): 30.03 inches Hg (1017.0 mb)
Winds: from the SSW (210 degrees) at 6 MPH (5 knots; 2.6 m/s)
Visibility: 6 or more miles (10+ km)
Ceiling: at least 12,000 feet AGL
Clouds: few clouds at 1700 feet AGL
scattered clouds at 2700 feet AGL
Weather: no significant weather observed at this time

METAR text: LYBT 170800Z 20006KT 160V250 9999 SCT015 SCT030 23/20 Q1017 NOSIG
Conditions at: LYBT (BATAJNICA , CS) observed 0800 UTC 17 June 2019
Temperature: 23.0°C (73°F)
Dewpoint: 20.0°C (68°F) [RH = 83%]
Pressure (altimeter): 30.03 inches Hg (1017.0 mb)
Winds: from the SSW (200 degrees) at 7 MPH (6 knots; 3.1 m/s)
Visibility: 6 or more miles (10+ km)
Ceiling: at least 12,000 feet AGL
Clouds: scattered clouds at 1500 feet AGL
scattered clouds at 3000 feet AGL
Weather: no significant weather observed at this time

METAR text: LYBT 170730Z 20007KT 9999 SCT010 BKN025 22/20 Q1017 NOSIG
Conditions at: LYBT (BATAJNICA , CS) observed 0730 UTC 17 June 2019
Temperature: 22.0°C (72°F)
Dewpoint: 20.0°C (68°F) [RH = 88%]
Pressure (altimeter): 30.03 inches Hg (1017.0 mb)
Winds: from the SSW (200 degrees) at 8 MPH (7 knots; 3.6 m/s)
Visibility: 6 or more miles (10+ km)
Ceiling: 2500 feet AGL
Clouds: scattered clouds at 1000 feet AGL
broken clouds at 2500 feet AGL
Weather: no significant weather observed at this time

METAR text: LYBT 170700Z 24005KT 210V280 9999 SCT010 BKN025 22/20 Q1017 NOSIG
Conditions at: LYBT (BATAJNICA , CS) observed 0700 UTC 17 June 2019
Temperature: 22.0°C (72°F)
Dewpoint: 20.0°C (68°F) [RH = 88%]
Pressure (altimeter): 30.03 inches Hg (1017.0 mb)
Winds: from the WSW (240 degrees) at 6 MPH (5 knots; 2.6 m/s)
Visibility: 6 or more miles (10+ km)
Ceiling: 2500 feet AGL
Clouds: scattered clouds at 1000 feet AGL
broken clouds at 2500 feet AGL
Weather: no significant weather observed at this time

METAR text: LYBT 170630Z 22006KT 190V250 9999 SCT007 SCT025 21/20 Q1017 NOSIG
Conditions at: LYBT (BATAJNICA , CS) observed 0630 UTC 17 June 2019
Temperature: 21.0°C (70°F)
Dewpoint: 20.0°C (68°F) [RH = 94%]
Pressure (altimeter): 30.03 inches Hg (1017.0 mb)
Winds: from the SW (220 degrees) at 7 MPH (6 knots; 3.1 m/s)
Visibility: 6 or more miles (10+ km)
Ceiling: at least 12,000 feet AGL
Clouds: scattered clouds at 700 feet AGL
scattered clouds at 2500 feet AGL
Weather: no significant weather observed at this time

METAR text: LYBT 170600Z 22005KT 190V260 9999 SCT007 BKN024 21/19 Q1017 NOSIG
Conditions at: LYBT (BATAJNICA , CS) observed 0600 UTC 17 June 2019
Temperature: 21.0°C (70°F)
Dewpoint: 19.0°C (66°F) [RH = 88%]
Pressure (altimeter): 30.03 inches Hg (1017.0 mb)
Winds: from the SW (220 degrees) at 6 MPH (5 knots; 2.6 m/s)
Visibility: 6 or more miles (10+ km)
Ceiling: 2400 feet AGL
Clouds: scattered clouds at 700 feet AGL
broken clouds at 2400 feet AGL
Weather: no significant weather observed at this time

METAR text: LYBT 170530Z 24007KT 9999 SCT007 BKN025 20/19 Q1016 NOSIG
Conditions at: LYBT (BATAJNICA , CS) observed 0530 UTC 17 June 2019
Temperature: 20.0°C (68°F)
Dewpoint: 19.0°C (66°F) [RH = 94%]
Pressure (altimeter): 30.00 inches Hg (1016.0 mb)
Winds: from the WSW (240 degrees) at 8 MPH (7 knots; 3.6 m/s)
Visibility: 6 or more miles (10+ km)
Ceiling: 2500 feet AGL
Clouds: scattered clouds at 700 feet AGL
broken clouds at 2500 feet AGL
Weather: no significant weather observed at this time

METAR text: LYBT 170500Z 24009KT 200V260 9999 FEW005 SCT024 20/19 Q1016 NOSIG
Conditions at: LYBT (BATAJNICA , CS) observed 0500 UTC 17 June 2019
Temperature: 20.0°C (68°F)
Dewpoint: 19.0°C (66°F) [RH = 94%]
Pressure (altimeter): 30.00 inches Hg (1016.0 mb)
Winds: from the WSW (240 degrees) at 10 MPH (9 knots; 4.6 m/s)
Visibility: 6 or more miles (10+ km)
Ceiling: at least 12,000 feet AGL
Clouds: few clouds at 500 feet AGL
scattered clouds at 2400 feet AGL
Weather: no significant weather observed at this time

METAR text: LYBT 170430Z 21006KT 9999 FEW005 SCT020 19/19 Q1016 NOSIG
Conditions at: LYBT (BATAJNICA , CS) observed 0430 UTC 17 June 2019
Temperature: 19.0°C (66°F)
Dewpoint: 19.0°C (66°F) [RH = 100%]
Pressure (altimeter): 30.00 inches Hg (1016.0 mb)
Winds: from the SSW (210 degrees) at 7 MPH (6 knots; 3.1 m/s)
Visibility: 6 or more miles (10+ km)
Ceiling: at least 12,000 feet AGL
Clouds: few clouds at 500 feet AGL
scattered clouds at 2000 feet AGL
Weather: no significant weather observed at this time

METAR text: LYBT 170400Z 20006KT 9999 SCT016 19/19 Q1016 NOSIG
Conditions at: LYBT (BATAJNICA , CS) observed 0400 UTC 17 June 2019
Temperature: 19.0°C (66°F)
Dewpoint: 19.0°C (66°F) [RH = 100%]
Pressure (altimeter): 30.00 inches Hg (1016.0 mb)
Winds: from the SSW (200 degrees) at 7 MPH (6 knots; 3.1 m/s)
Visibility: 6 or more miles (10+ km)
Ceiling: at least 12,000 feet AGL
Clouds: scattered clouds at 1600 feet AGL
Weather: no significant weather observed at this time

METAR text: LYBT 170330Z 19007KT 160V240 CAVOK 20/19 Q1015 NOSIG
Conditions at: LYBT (BATAJNICA , CS) observed 0330 UTC 17 June 2019
Temperature: 20.0°C (68°F)
Dewpoint: 19.0°C (66°F) [RH = 94%]
Pressure (altimeter): 29.97 inches Hg (1015.0 mb)
Winds: from the S (190 degrees) at 8 MPH (7 knots; 3.6 m/s)
Visibility: 6 or more miles (10+ km)
Ceiling: ceiling and visibility are OK
Clouds: unknown
Weather: no significant weather observed at this time

METAR text: LYBT 170300Z 31005KT 270V350 CAVOK 20/19 Q1014 NOSIG
Conditions at: LYBT (BATAJNICA , CS) observed 0300 UTC 17 June 2019
Temperature: 20.0°C (68°F)
Dewpoint: 19.0°C (66°F) [RH = 94%]
Pressure (altimeter): 29.94 inches Hg (1014.0 mb)
Winds: from the NW (310 degrees) at 6 MPH (5 knots; 2.6 m/s)
Visibility: 6 or more miles (10+ km)
Ceiling: ceiling and visibility are OK
Clouds: unknown
Weather: no significant weather observed at this time

METAR text: LYBT 170200Z 30007KT 260V320 CAVOK 19/19 Q1015 NOSIG
Conditions at: LYBT (BATAJNICA , CS) observed 0200 UTC 17 June 2019
Temperature: 19.0°C (66°F)
Dewpoint: 19.0°C (66°F) [RH = 100%]
Pressure (altimeter): 29.97 inches Hg (1015.0 mb)
Winds: from the WNW (300 degrees) at 8 MPH (7 knots; 3.6 m/s)
Visibility: 6 or more miles (10+ km)
Ceiling: ceiling and visibility are OK
Clouds: unknown
Weather: no significant weather observed at this time

METAR text: LYBT 170130Z 29006KT 240V320 9999 NSC 19/19 Q1016 RETS NOSIG
Conditions at: LYBT (BATAJNICA , CS) observed 0130 UTC 17 June 2019
Temperature: 19.0°C (66°F)
Dewpoint: 19.0°C (66°F) [RH = 100%]
Pressure (altimeter): 30.00 inches Hg (1016.0 mb)
Winds: from the WNW (290 degrees) at 7 MPH (6 knots; 3.1 m/s)
Visibility: 6 or more miles (10+ km)
Ceiling: at least 12,000 feet AGL
Clouds: sky clear below 12,000 feet AGL
Weather: no significant weather observed at this time

METAR text: LYBT 170100Z 24006KT 210V280 CAVOK 19/19 Q1016 NOSIG
Conditions at: LYBT (BATAJNICA , CS) observed 0100 UTC 17 June 2019
Temperature: 19.0°C (66°F)
Dewpoint: 19.0°C (66°F) [RH = 100%]
Pressure (altimeter): 30.00 inches Hg (1016.0 mb)
Winds: from the WSW (240 degrees) at 7 MPH (6 knots; 3.1 m/s)
Visibility: 6 or more miles (10+ km)
Ceiling: ceiling and visibility are OK
Clouds: unknown
Weather: no significant weather observed at this time

METAR text: LYBT 170030Z 25013KT 220V280 9999 BKN033 19/19 Q1016 RETS NOSIG
Conditions at: LYBT (BATAJNICA , CS) observed 0030 UTC 17 June 2019
Temperature: 19.0°C (66°F)
Dewpoint: 19.0°C (66°F) [RH = 100%]
Pressure (altimeter): 30.00 inches Hg (1016.0 mb)
Winds: from the WSW (250 degrees) at 15 MPH (13 knots; 6.7 m/s)
Visibility: 6 or more miles (10+ km)
Ceiling: 3300 feet AGL
Clouds: broken clouds at 3300 feet AGL
Weather: no significant weather observed at this time

METAR text: LYBT 170000Z 25013KT 220V290 8000 -TSRA FEW033CB 19/19 Q1015 RERA NOSIG
Conditions at: LYBT (BATAJNICA , CS) observed 0000 UTC 17 June 2019
Temperature: 19.0°C (66°F)
Dewpoint: 19.0°C (66°F) [RH = 100%]
Pressure (altimeter): 29.97 inches Hg (1015.0 mb)
Winds: from the WSW (250 degrees) at 15 MPH (13 knots; 6.7 m/s)
Visibility: 5 miles ( 8 km)
Ceiling: at least 12,000 feet AGL
Clouds: few clouds at 3300 feet AGL
Weather: -TSRA  (light rain associated with thunderstorm(s))

METAR text: LYBT 162330Z 26010KT 230V290 5000 TSRA SCT016 SCT033CB 19/19 Q1016 NOSIG
Conditions at: LYBT (BATAJNICA , CS) observed 2330 UTC 16 June 2019
Temperature: 19.0°C (66°F)
Dewpoint: 19.0°C (66°F) [RH = 100%]
Pressure (altimeter): 30.00 inches Hg (1016.0 mb)
Winds: from the W (260 degrees) at 12 MPH (10 knots; 5.1 m/s)
Visibility: 3 miles ( 5 km)
Ceiling: at least 12,000 feet AGL
Clouds: scattered clouds at 1600 feet AGL
scattered clouds at 3300 feet AGL
Weather: TSRA  (rain associated with thunderstorm(s))

METAR text: LYBT 162300Z 24018KT 210V280 2500 TSRA SCT016 SCT033CB 20/18 Q1015 NOSIG
Conditions at: LYBT (BATAJNICA , CS) observed 2300 UTC 16 June 2019
Temperature: 20.0°C (68°F)
Dewpoint: 18.0°C (64°F) [RH = 88%]
Pressure (altimeter): 29.97 inches Hg (1015.0 mb)
Winds: from the WSW (240 degrees) at 21 MPH (18 knots; 9.3 m/s)
Visibility: 1.55 miles (2.49 km)
Ceiling: at least 12,000 feet AGL
Clouds: scattered clouds at 1600 feet AGL
scattered clouds at 3300 feet AGL
Weather: TSRA  (rain associated with thunderstorm(s))

METAR text: LYBT 162230Z 21007KT 070V240 9999 VCTS FEW040CB 23/18 Q1014 NOSIG
Conditions at: LYBT (BATAJNICA , CS) observed 2230 UTC 16 June 2019
Temperature: 23.0°C (73°F)
Dewpoint: 18.0°C (64°F) [RH = 73%]
Pressure (altimeter): 29.94 inches Hg (1014.0 mb)
Winds: from the SSW (210 degrees) at 8 MPH (7 knots; 3.6 m/s)
Visibility: 6 or more miles (10+ km)
Ceiling: at least 12,000 feet AGL
Clouds: few clouds at 4000 feet AGL
Weather: VCTS  (thunderstorm in vicinity)

METAR text: LYBT 162200Z 06004KT 020V100 9999 VCTS FEW040CB 23/18 Q1013 NOSIG
Conditions at: LYBT (BATAJNICA , CS) observed 2200 UTC 16 June 2019
Temperature: 23.0°C (73°F)
Dewpoint: 18.0°C (64°F) [RH = 73%]
Pressure (altimeter): 29.91 inches Hg (1013.0 mb)
Winds: from the ENE (60 degrees) at 5 MPH (4 knots; 2.1 m/s)
Visibility: 6 or more miles (10+ km)
Ceiling: at least 12,000 feet AGL
Clouds: few clouds at 4000 feet AGL
Weather: VCTS  (thunderstorm in vicinity)

METAR text: LYBT 162130Z 03011KT 360V070 9999 VCTS FEW040CB 24/17 Q1013 NOSIG
Conditions at: LYBT (BATAJNICA , CS) observed 2130 UTC 16 June 2019
Temperature: 24.0°C (75°F)
Dewpoint: 17.0°C (63°F) [RH = 65%]
Pressure (altimeter): 29.91 inches Hg (1013.0 mb)
Winds: from the NNE (30 degrees) at 13 MPH (11 knots; 5.7 m/s)
Visibility: 6 or more miles (10+ km)
Ceiling: at least 12,000 feet AGL
Clouds: few clouds at 4000 feet AGL
Weather: VCTS  (thunderstorm in vicinity)

METAR text: LYBT 162100Z 02012KT 320V070 9999 TS FEW040CB 24/16 Q1013 TEMPO 33025KT 3000 TSRA
Conditions at: LYBT (BATAJNICA , CS) observed 2100 UTC 16 June 2019
Temperature: 24.0°C (75°F)
Dewpoint: 16.0°C (61°F) [RH = 61%]
Pressure (altimeter): 29.91 inches Hg (1013.0 mb)
Winds: from the NNE (20 degrees) at 14 MPH (12 knots; 6.2 m/s)
Visibility: 6 or more miles (10+ km)
Ceiling: at least 12,000 feet AGL
Clouds: few clouds at 4000 feet AGL
Weather: TS  (thunderstorm)

METAR text: LYBT 162030Z 01011KT CAVOK 24/16 Q1013 TEMPO 33025KT 3000 TSRA
Conditions at: LYBT (BATAJNICA , CS) observed 2030 UTC 16 June 2019
Temperature: 24.0°C (75°F)
Dewpoint: 16.0°C (61°F) [RH = 61%]
Pressure (altimeter): 29.91 inches Hg (1013.0 mb)
Winds: from the N (10 degrees) at 13 MPH (11 knots; 5.7 m/s)
Visibility: 6 or more miles (10+ km)
Ceiling: ceiling and visibility are OK
Clouds: unknown
Weather: no significant weather observed at this time

METAR text: LYBT 162000Z 36011KT 330V030 CAVOK 25/16 Q1012 NOSIG
Conditions at: LYBT (BATAJNICA , CS) observed 2000 UTC 16 June 2019
Temperature: 25.0°C (77°F)
Dewpoint: 16.0°C (61°F) [RH = 57%]
Pressure (altimeter): 29.88 inches Hg (1012.0 mb)
Winds: from the N (360 degrees) at 13 MPH (11 knots; 5.7 m/s)
Visibility: 6 or more miles (10+ km)
Ceiling: ceiling and visibility are OK
Clouds: unknown
Weather: no significant weather observed at this time

METAR text: LYBT 161930Z 34013KT 320V020 9999 FEW040TCU 25/15 Q1012 RETS NOSIG
Conditions at: LYBT (BATAJNICA , CS) observed 1930 UTC 16 June 2019
Temperature: 25.0°C (77°F)
Dewpoint: 15.0°C (59°F) [RH = 54%]
Pressure (altimeter): 29.88 inches Hg (1012.0 mb)
Winds: from the NNW (340 degrees) at 15 MPH (13 knots; 6.7 m/s)
Visibility: 6 or more miles (10+ km)
Ceiling: at least 12,000 feet AGL
Clouds: few clouds at 4000 feet AGL
Weather: no significant weather observed at this time

METAR text: LYBT 161900Z 33009G20KT 9999 FEW040TCU 26/19 Q1012 NOSIG
Conditions at: LYBT (BATAJNICA , CS) observed 1900 UTC 16 June 2019
Temperature: 26.0°C (79°F)
Dewpoint: 19.0°C (66°F) [RH = 65%]
Pressure (altimeter): 29.88 inches Hg (1012.0 mb)
Winds: from the NNW (330 degrees) at 10 MPH (9 knots; 4.6 m/s)
gusting to 23 MPH (20 knots; 10.3 m/s)
Visibility: 6 or more miles (10+ km)
Ceiling: at least 12,000 feet AGL
Clouds: few clouds at 4000 feet AGL
Weather: no significant weather observed at this time

METAR text: LYBT 161830Z 01002KT CAVOK 27/19 Q1011 NOSIG
Conditions at: LYBT (BATAJNICA , CS) observed 1830 UTC 16 June 2019
Temperature: 27.0°C (81°F)
Dewpoint: 19.0°C (66°F) [RH = 62%]
Pressure (altimeter): 29.85 inches Hg (1011.0 mb)
Winds: from the N (10 degrees) at 2 MPH (2 knots; 1.0 m/s)
Visibility: 6 or more miles (10+ km)
Ceiling: ceiling and visibility are OK
Clouds: unknown
Weather: no significant weather observed at this time

METAR text: LYBT 161800Z 03005KT 9999 FEW040TCU 28/19 Q1011 NOSIG
Conditions at: LYBT (BATAJNICA , CS) observed 1800 UTC 16 June 2019
Temperature: 28.0°C (82°F)
Dewpoint: 19.0°C (66°F) [RH = 58%]
Pressure (altimeter): 29.85 inches Hg (1011.0 mb)
Winds: from the NNE (30 degrees) at 6 MPH (5 knots; 2.6 m/s)
Visibility: 6 or more miles (10+ km)
Ceiling: at least 12,000 feet AGL
Clouds: few clouds at 4000 feet AGL
Weather: no significant weather observed at this time

METAR text: LYBT 161730Z 01002KT CAVOK 30/20 Q1011 NOSIG
Conditions at: LYBT (BATAJNICA , CS) observed 1730 UTC 16 June 2019
Temperature: 30.0°C (86°F)
Dewpoint: 20.0°C (68°F) [RH = 55%]
Pressure (altimeter): 29.85 inches Hg (1011.0 mb)
Winds: from the N (10 degrees) at 2 MPH (2 knots; 1.0 m/s)
Visibility: 6 or more miles (10+ km)
Ceiling: ceiling and visibility are OK
Clouds: unknown
Weather: no significant weather observed at this time

METAR text: LYBT 161700Z 00000KT CAVOK 30/21 Q1011 NOSIG
Conditions at: LYBT (BATAJNICA , CS) observed 1700 UTC 16 June 2019
Temperature: 30.0°C (86°F)
Dewpoint: 21.0°C (70°F) [RH = 59%]
Pressure (altimeter): 29.85 inches Hg (1011.0 mb)
Winds: calm
Visibility: 6 or more miles (10+ km)
Ceiling: ceiling and visibility are OK
Clouds: unknown
Weather: no significant weather observed at this time

METAR text: LYBT 161630Z 04003KT 020V080 CAVOK 31/17 Q1011 NOSIG
Conditions at: LYBT (BATAJNICA , CS) observed 1630 UTC 16 June 2019
Temperature: 31.0°C (88°F)
Dewpoint: 17.0°C (63°F) [RH = 43%]
Pressure (altimeter): 29.85 inches Hg (1011.0 mb)
Winds: from the NE (40 degrees) at 3 MPH (3 knots; 1.5 m/s)
Visibility: 6 or more miles (10+ km)
Ceiling: ceiling and visibility are OK
Clouds: unknown
Weather: no significant weather observed at this time

METAR text: LYBT 161600Z 06004KT 030V100 CAVOK 31/17 Q1010 NOSIG
Conditions at: LYBT (BATAJNICA , CS) observed 1600 UTC 16 June 2019
Temperature: 31.0°C (88°F)
Dewpoint: 17.0°C (63°F) [RH = 43%]
Pressure (altimeter): 29.82 inches Hg (1010.0 mb)
Winds: from the ENE (60 degrees) at 5 MPH (4 knots; 2.1 m/s)
Visibility: 6 or more miles (10+ km)
Ceiling: ceiling and visibility are OK
Clouds: unknown
Weather: no significant weather observed at this time

METAR text: LYBT 161530Z 05005KT 030V090 CAVOK 32/16 Q1010 NOSIG
Conditions at: LYBT (BATAJNICA , CS) observed 1530 UTC 16 June 2019
Temperature: 32.0°C (90°F)
Dewpoint: 16.0°C (61°F) [RH = 38%]
Pressure (altimeter): 29.82 inches Hg (1010.0 mb)
Winds: from the NE (50 degrees) at 6 MPH (5 knots; 2.6 m/s)
Visibility: 6 or more miles (10+ km)
Ceiling: ceiling and visibility are OK
Clouds: unknown
Weather: no significant weather observed at this time

Forecast for: LYBT (BATAJNICA , CS)
Text: TAF LYBT 172300Z 1800/1824 18004KT 5000 BR NSC TX28/1813Z TN18/1803Z
Forecast period: 0000 UTC 18 June 2019 to 0000 UTC 19 June 2019
Forecast type: FROM: standard forecast or significant change
Winds: from the S (180 degrees) at 5 MPH (4 knots; 2.1 m/s)
Visibility: 3 miles (5 km)
Ceiling: unknown
Clouds: missing
Weather: BR  (mist)
Text: BECMG 1800/1802 3000
Forecast period: 0000 to 0700 UTC 18 June 2019
Forecast type: BECOMING: Conditions expected to become as follows by 0200 UTC 18 June 2019
Winds: from the S (180 degrees) at 5 MPH (4 knots; 2.1 m/s)
Visibility: 1.86 miles (2.99 km)
Ceiling: unknown
Clouds: missing
Weather: BR  (mist)
Text: TEMPO 1802/1806 1500 BKN006
Forecast period: 0200 to 0600 UTC 18 June 2019
Forecast type: TEMPORARY: The following changes expected for less than half the time period
Visibility: 0.93 miles (1.50 km)
Ceiling: 600 feet AGL
Clouds: broken clouds at 600 feet AGL
Weather: no significant weather forecast for this period
Text: BECMG 1807/1809 9999 NSW SCT040
Forecast period: 0700 UTC 18 June 2019 to 0000 UTC 19 June 2019
Forecast type: BECOMING: Conditions expected to become as follows by 0900 UTC 18 June 2019
Winds: from the S (180 degrees) at 5 MPH (4 knots; 2.1 m/s)
Visibility: 6 or more miles 10+ km)
Ceiling: at least 12,000 feet AGL
Clouds: scattered clouds at 4000 feet AGL
Weather: NSW  (no significant weather)
Text: TEMPO 1814/1818 VRB15G25KT 5000 TSRA SCT027CB SCT033
Forecast period: 1400 to 1800 UTC 18 June 2019
Forecast type: TEMPORARY: The following changes expected for less than half the time period
Winds: variable direction winds at 17 MPH (15 knots; 7.7 m/s)
gusting to 29 MPH (25 knots; 12.9 m/s)
Visibility: 3 miles (5 km)
Ceiling: at least 12,000 feet AGL
Clouds: scattered clouds at 2700 feet AGL
scattered clouds at 3300 feet AGL
Weather: TSRA  (rain associated with thunderstorm(s))